sensor_id;sensor_type;location;lat;lon;timestamp;P1;durP1;ratioP1;P2;durP2;ratioP2
23236;SDS011;11787;52.018;8.570;2023-12-14T03:35:06;4.00;;;2.13;;
23236;SDS011;11787;52.018;8.570;2023-12-14T03:37:33;2.40;;;1.73;;
23236;SDS011;11787;52.018;8.570;2023-12-14T03:39:59;2.63;;;1.67;;
23236;SDS011;11787;52.018;8.570;2023-12-14T03:42:24;4.50;;;1.52;;
23236;SDS011;11787;52.018;8.570;2023-12-14T03:44:50;3.67;;;2.00;;
23236;SDS011;11787;52.018;8.570;2023-12-14T03:47:15;4.35;;;1.60;;
23236;SDS011;11787;52.018;8.570;2023-12-14T03:49:41;3.67;;;2.30;;
23236;SDS011;11787;52.018;8.570;2023-12-14T03:52:08;2.50;;;1.50;;
23236;SDS011;11787;52.018;8.570;2023-12-14T03:54:34;1.48;;;1.23;;
23236;SDS011;11787;52.018;8.570;2023-12-14T03:57:00;2.25;;;1.10;;
23236;SDS011;11787;52.018;8.570;2023-12-14T03:59:25;2.25;;;1.63;;
23236;SDS011;11787;52.018;8.570;2023-12-14T04:01:51;2.80;;;1.40;;
23236;SDS011;11787;52.018;8.570;2023-12-14T04:04:16;2.13;;;1.65;;
23236;SDS011;11787;52.018;8.570;2023-12-14T04:06:42;3.05;;;1.80;;
23236;SDS011;11787;52.018;8.570;2023-12-14T04:09:07;3.33;;;1.67;;
23236;SDS011;11787;52.018;8.570;2023-12-14T04:11:33;2.42;;;1.50;;
23236;SDS011;11787;52.018;8.570;2023-12-14T04:13:58;2.85;;;1.65;;
23236;SDS011;11787;52.018;8.570;2023-12-14T04:16:24;1.85;;;1.10;;
23236;SDS011;11787;52.018;8.570;2023-12-14T04:18:49;1.55;;;1.13;;
23236;SDS011;11787;52.018;8.570;2023-12-14T04:21:15;2.60;;;1.40;;
23236;SDS011;11787;52.018;8.570;2023-12-14T04:23:41;2.10;;;1.40;;
23236;SDS011;11787;52.018;8.570;2023-12-14T04:26:06;2.40;;;1.50;;
23236;SDS011;11787;52.018;8.570;2023-12-14T04:28:34;2.33;;;1.50;;
23236;SDS011;11787;52.018;8.570;2023-12-14T04:31:00;3.03;;;1.60;;
23236;SDS011;11787;52.018;8.570;2023-12-14T04:33:25;2.90;;;1.80;;
23236;SDS011;11787;52.018;8.570;2023-12-14T04:35:51;2.28;;;1.65;;
23236;SDS011;11787;52.018;8.570;2023-12-14T04:38:17;4.15;;;2.15;;
23236;SDS011;11787;52.018;8.570;2023-12-14T04:40:43;2.25;;;2.05;;
23236;SDS011;11787;52.018;8.570;2023-12-14T04:43:09;3.30;;;2.08;;
23236;SDS011;11787;52.018;8.570;2023-12-14T04:45:34;3.42;;;2.20;;
23236;SDS011;11787;52.018;8.570;2023-12-14T04:48:00;4.90;;;2.45;;
23236;SDS011;11787;52.018;8.570;2023-12-14T04:50:25;2.95;;;2.05;;
23236;SDS011;11787;52.018;8.570;2023-12-14T04:52:51;5.30;;;2.97;;
23236;SDS011;11787;52.018;8.570;2023-12-14T04:55:16;5.32;;;2.78;;
23236;SDS011;11787;52.018;8.570;2023-12-14T04:57:42;3.70;;;2.72;;
23236;SDS011;11787;52.018;8.570;2023-12-14T05:00:09;5.25;;;2.85;;
23236;SDS011;11787;52.018;8.570;2023-12-14T05:02:34;4.32;;;2.55;;
23236;SDS011;11787;52.018;8.570;2023-12-14T05:05:00;4.00;;;2.38;;
23236;SDS011;11787;52.018;8.570;2023-12-14T05:07:26;4.60;;;2.88;;
23236;SDS011;11787;52.018;8.570;2023-12-14T05:09:51;4.35;;;2.30;;
23236;SDS011;11787;52.018;8.570;2023-12-14T05:12:17;3.90;;;2.50;;
23236;SDS011;11787;52.018;8.570;2023-12-14T05:14:42;4.53;;;1.95;;
23236;SDS011;11787;52.018;8.570;2023-12-14T05:17:08;4.95;;;2.30;;
23236;SDS011;11787;52.018;8.570;2023-12-14T05:19:33;7.13;;;3.17;;
23236;SDS011;11787;52.018;8.570;2023-12-14T05:21:59;4.45;;;2.75;;
23236;SDS011;11787;52.018;8.570;2023-12-14T05:24:25;3.58;;;2.13;;
23236;SDS011;11787;52.018;8.570;2023-12-14T05:26:50;4.43;;;2.75;;
23236;SDS011;11787;52.018;8.570;2023-12-14T05:29:16;3.63;;;1.98;;
23236;SDS011;11787;52.018;8.570;2023-12-14T05:31:42;5.07;;;3.40;;
23236;SDS011;11787;52.018;8.570;2023-12-14T05:34:08;7.10;;;2.35;;
23236;SDS011;11787;52.018;8.570;2023-12-14T05:36:33;7.45;;;3.00;;
23236;SDS011;11787;52.018;8.570;2023-12-14T05:38:59;2.88;;;1.85;;
23236;SDS011;11787;52.018;8.570;2023-12-14T05:41:24;2.92;;;1.90;;
23236;SDS011;11787;52.018;8.570;2023-12-14T05:43:50;3.58;;;2.08;;
23236;SDS011;11787;52.018;8.570;2023-12-14T05:46:22;3.53;;;1.83;;
23236;SDS011;11787;52.018;8.570;2023-12-14T05:48:49;2.85;;;2.13;;
23236;SDS011;11787;52.018;8.570;2023-12-14T05:51:25;2.63;;;2.17;;
23236;SDS011;11787;52.018;8.570;2023-12-14T05:53:52;2.97;;;2.28;;
23236;SDS011;11787;52.018;8.570;2023-12-14T05:56:17;3.25;;;2.35;;
23236;SDS011;11787;52.018;8.570;2023-12-14T05:58:43;2.05;;;1.55;;
23236;SDS011;11787;52.018;8.570;2023-12-14T06:01:08;3.88;;;2.45;;
23236;SDS011;11787;52.018;8.570;2023-12-14T06:03:34;3.30;;;2.05;;
23236;SDS011;11787;52.018;8.570;2023-12-14T06:05:59;3.72;;;2.17;;
23236;SDS011;11787;52.018;8.570;2023-12-14T06:08:25;2.67;;;1.83;;
23236;SDS011;11787;52.018;8.570;2023-12-14T06:10:50;5.20;;;2.00;;
23236;SDS011;11787;52.018;8.570;2023-12-14T06:13:16;2.60;;;1.73;;
23236;SDS011;11787;52.018;8.570;2023-12-14T06:15:42;7.07;;;1.73;;
23236;SDS011;11787;52.018;8.570;2023-12-14T06:18:07;3.45;;;1.83;;
23236;SDS011;11787;52.018;8.570;2023-12-14T06:20:33;2.22;;;1.45;;
23236;SDS011;11787;52.018;8.570;2023-12-14T06:22:58;3.67;;;2.03;;
23236;SDS011;11787;52.018;8.570;2023-12-14T06:25:24;4.20;;;2.38;;
23236;SDS011;11787;52.018;8.570;2023-12-14T06:27:49;3.15;;;1.73;;
23236;SDS011;11787;52.018;8.570;2023-12-14T06:30:15;4.47;;;2.92;;
23236;SDS011;11787;52.018;8.570;2023-12-14T06:32:40;3.20;;;2.05;;
23236;SDS011;11787;52.018;8.570;2023-12-14T06:35:06;4.53;;;2.03;;
23236;SDS011;11787;52.018;8.570;2023-12-14T06:37:32;3.50;;;2.05;;
23236;SDS011;11787;52.018;8.570;2023-12-14T06:39:57;3.58;;;2.55;;
23236;SDS011;11787;52.018;8.570;2023-12-14T06:42:23;5.75;;;2.85;;
23236;SDS011;11787;52.018;8.570;2023-12-14T06:44:48;3.85;;;2.53;;
23236;SDS011;11787;52.018;8.570;2023-12-14T06:47:14;4.15;;;2.75;;
23236;SDS011;11787;52.018;8.570;2023-12-14T06:49:40;2.28;;;1.75;;
23236;SDS011;11787;52.018;8.570;2023-12-14T06:52:06;3.88;;;2.38;;
23236;SDS011;11787;52.018;8.570;2023-12-14T06:54:32;3.78;;;2.40;;
23236;SDS011;11787;52.018;8.570;2023-12-14T06:56:58;3.67;;;2.38;;
23236;SDS011;11787;52.018;8.570;2023-12-14T06:59:23;5.07;;;2.10;;
23236;SDS011;11787;52.018;8.570;2023-12-14T07:01:49;5.65;;;3.15;;
23236;SDS011;11787;52.018;8.570;2023-12-14T07:04:14;3.55;;;2.20;;
23236;SDS011;11787;52.018;8.570;2023-12-14T07:06:40;3.47;;;2.10;;
23236;SDS011;11787;52.018;8.570;2023-12-14T07:09:06;5.32;;;2.67;;
23236;SDS011;11787;52.018;8.570;2023-12-14T07:11:31;3.33;;;2.45;;
23236;SDS011;11787;52.018;8.570;2023-12-14T07:13:57;3.60;;;2.30;;
23236;SDS011;11787;52.018;8.570;2023-12-14T07:16:23;3.50;;;2.45;;
23236;SDS011;11787;52.018;8.570;2023-12-14T07:18:48;3.15;;;2.15;;
23236;SDS011;11787;52.018;8.570;2023-12-14T07:21:14;4.13;;;2.55;;
23236;SDS011;11787;52.018;8.570;2023-12-14T07:23:39;3.65;;;1.90;;
23236;SDS011;11787;52.018;8.570;2023-12-14T07:26:05;3.92;;;2.13;;
23236;SDS011;11787;52.018;8.570;2023-12-14T07:28:30;2.42;;;1.83;;
23236;SDS011;11787;52.018;8.570;2023-12-14T07:30:56;2.38;;;1.55;;
23236;SDS011;11787;52.018;8.570;2023-12-14T07:33:22;2.85;;;2.35;;
23236;SDS011;11787;52.018;8.570;2023-12-14T07:35:47;4.45;;;2.20;;
23236;SDS011;11787;52.018;8.570;2023-12-14T07:38:13;2.97;;;2.03;;
23236;SDS011;11787;52.018;8.570;2023-12-14T07:40:39;4.13;;;2.10;;
23236;SDS011;11787;52.018;8.570;2023-12-14T07:43:05;4.50;;;2.33;;
23236;SDS011;11787;52.018;8.570;2023-12-14T07:45:32;2.33;;;1.67;;
23236;SDS011;11787;52.018;8.570;2023-12-14T07:47:57;3.85;;;2.25;;
23236;SDS011;11787;52.018;8.570;2023-12-14T07:50:23;3.30;;;2.35;;
23236;SDS011;11787;52.018;8.570;2023-12-14T07:52:49;3.58;;;1.98;;
23236;SDS011;11787;52.018;8.570;2023-12-14T07:55:14;2.95;;;1.83;;
23236;SDS011;11787;52.018;8.570;2023-12-14T07:57:40;5.18;;;2.53;;
23236;SDS011;11787;52.018;8.570;2023-12-14T08:00:06;2.35;;;1.80;;
23236;SDS011;11787;52.018;8.570;2023-12-14T08:02:33;3.60;;;2.10;;
23236;SDS011;11787;52.018;8.570;2023-12-14T08:04:59;2.88;;;2.05;;
23236;SDS011;11787;52.018;8.570;2023-12-14T08:07:25;3.30;;;1.95;;
23236;SDS011;11787;52.018;8.570;2023-12-14T08:09:54;3.63;;;2.00;;
23236;SDS011;11787;52.018;8.570;2023-12-14T08:12:19;3.45;;;1.75;;
23236;SDS011;11787;52.018;8.570;2023-12-14T08:14:46;2.42;;;1.90;;
23236;SDS011;11787;52.018;8.570;2023-12-14T08:17:12;4.60;;;2.15;;
23236;SDS011;11787;52.018;8.570;2023-12-14T08:19:37;3.22;;;2.22;;
23236;SDS011;11787;52.018;8.570;2023-12-14T08:22:03;3.15;;;1.65;;
23236;SDS011;11787;52.018;8.570;2023-12-14T08:24:29;2.70;;;1.42;;
23236;SDS011;11787;52.018;8.570;2023-12-14T08:26:54;6.45;;;1.52;;
23236;SDS011;11787;52.018;8.570;2023-12-14T08:29:20;3.90;;;2.63;;
23236;SDS011;11787;52.018;8.570;2023-12-14T08:31:47;2.17;;;1.50;;
23236;SDS011;11787;52.018;8.570;2023-12-14T08:34:13;2.47;;;1.65;;
23236;SDS011;11787;52.018;8.570;2023-12-14T08:36:39;2.25;;;1.85;;
23236;SDS011;11787;52.018;8.570;2023-12-14T08:39:05;2.90;;;2.03;;
23236;SDS011;11787;52.018;8.570;2023-12-14T08:41:30;3.00;;;2.13;;
23236;SDS011;11787;52.018;8.570;2023-12-14T08:43:56;2.95;;;1.92;;
23236;SDS011;11787;52.018;8.570;2023-12-14T08:46:21;2.13;;;1.90;;
23236;SDS011;11787;52.018;8.570;2023-12-14T08:48:47;3.60;;;1.92;;
23236;SDS011;11787;52.018;8.570;2023-12-14T08:51:13;2.67;;;1.80;;
23236;SDS011;11787;52.018;8.570;2023-12-14T08:53:39;2.80;;;1.77;;
23236;SDS011;11787;52.018;8.570;2023-12-14T08:56:05;2.30;;;1.80;;
23236;SDS011;11787;52.018;8.570;2023-12-14T08:58:31;3.33;;;1.88;;
23236;SDS011;11787;52.018;8.570;2023-12-14T09:00:56;2.85;;;2.00;;
23236;SDS011;11787;52.018;8.570;2023-12-14T09:03:22;2.72;;;1.83;;
23236;SDS011;11787;52.018;8.570;2023-12-14T09:05:47;2.97;;;2.10;;
23236;SDS011;11787;52.018;8.570;2023-12-14T09:08:13;2.58;;;1.65;;
23236;SDS011;11787;52.018;8.570;2023-12-14T09:10:39;2.78;;;1.67;;
23236;SDS011;11787;52.018;8.570;2023-12-14T09:13:04;2.85;;;2.20;;
23236;SDS011;11787;52.018;8.570;2023-12-14T09:15:31;3.50;;;2.10;;
23236;SDS011;11787;52.018;8.570;2023-12-14T09:17:57;2.63;;;1.80;;
23236;SDS011;11787;52.018;8.570;2023-12-14T09:20:22;4.57;;;2.30;;
23236;SDS011;11787;52.018;8.570;2023-12-14T09:22:48;2.60;;;2.10;;
23236;SDS011;11787;52.018;8.570;2023-12-14T09:25:13;2.42;;;2.00;;
23236;SDS011;11787;52.018;8.570;2023-12-14T09:27:40;3.25;;;2.15;;
23236;SDS011;11787;52.018;8.570;2023-12-14T09:30:06;2.72;;;1.63;;
23236;SDS011;11787;52.018;8.570;2023-12-14T09:32:32;3.10;;;2.40;;
23236;SDS011;11787;52.018;8.570;2023-12-14T09:34:58;5.22;;;2.33;;
23236;SDS011;11787;52.018;8.570;2023-12-14T09:37:24;2.40;;;1.90;;
23236;SDS011;11787;52.018;8.570;2023-12-14T09:39:50;3.85;;;2.53;;
23236;SDS011;11787;52.018;8.570;2023-12-14T09:42:16;2.70;;;2.08;;
23236;SDS011;11787;52.018;8.570;2023-12-14T09:44:47;3.20;;;2.78;;
23236;SDS011;11787;52.018;8.570;2023-12-14T09:47:13;4.50;;;2.80;;
23236;SDS011;11787;52.018;8.570;2023-12-14T09:49:39;4.32;;;2.42;;
23236;SDS011;11787;52.018;8.570;2023-12-14T09:52:07;2.67;;;2.10;;
23236;SDS011;11787;52.018;8.570;2023-12-14T09:54:33;2.70;;;2.00;;
23236;SDS011;11787;52.018;8.570;2023-12-14T09:56:59;3.35;;;2.72;;
23236;SDS011;11787;52.018;8.570;2023-12-14T09:59:24;3.00;;;2.30;;
23236;SDS011;11787;52.018;8.570;2023-12-14T10:01:50;2.72;;;2.15;;
23236;SDS011;11787;52.018;8.570;2023-12-14T10:04:16;2.38;;;1.98;;
23236;SDS011;11787;52.018;8.570;2023-12-14T10:06:47;3.50;;;2.42;;
23236;SDS011;11787;52.018;8.570;2023-12-14T10:09:13;2.85;;;2.13;;
23236;SDS011;11787;52.018;8.570;2023-12-14T10:11:40;3.83;;;2.38;;
23236;SDS011;11787;52.018;8.570;2023-12-14T10:14:21;3.15;;;2.40;;
23236;SDS011;11787;52.018;8.570;2023-12-14T10:16:49;3.65;;;2.42;;
23236;SDS011;11787;52.018;8.570;2023-12-14T10:19:18;3.15;;;2.22;;
23236;SDS011;11787;52.018;8.570;2023-12-14T10:21:48;4.35;;;2.50;;
23236;SDS011;11787;52.018;8.570;2023-12-14T10:24:15;3.50;;;2.45;;
23236;SDS011;11787;52.018;8.570;2023-12-14T10:26:41;3.67;;;2.20;;
23236;SDS011;11787;52.018;8.570;2023-12-14T10:29:10;5.00;;;2.47;;
23236;SDS011;11787;52.018;8.570;2023-12-14T10:31:36;3.80;;;2.22;;
23236;SDS011;11787;52.018;8.570;2023-12-14T10:34:04;2.65;;;2.08;;
23236;SDS011;11787;52.018;8.570;2023-12-14T10:36:30;2.95;;;2.30;;
23236;SDS011;11787;52.018;8.570;2023-12-14T10:38:58;4.80;;;2.72;;
23236;SDS011;11787;52.018;8.570;2023-12-14T10:41:25;2.95;;;1.95;;
23236;SDS011;11787;52.018;8.570;2023-12-14T10:43:55;3.65;;;2.30;;
23236;SDS011;11787;52.018;8.570;2023-12-14T10:46:21;3.22;;;2.42;;
23236;SDS011;11787;52.018;8.570;2023-12-14T10:48:49;3.40;;;2.25;;
23236;SDS011;11787;52.018;8.570;2023-12-14T10:51:20;4.88;;;2.53;;
23236;SDS011;11787;52.018;8.570;2023-12-14T10:53:47;2.95;;;2.33;;
23236;SDS011;11787;52.018;8.570;2023-12-14T10:56:14;4.95;;;2.88;;
23236;SDS011;11787;52.018;8.570;2023-12-14T10:58:51;4.03;;;2.38;;
23236;SDS011;11787;52.018;8.570;2023-12-14T11:01:19;4.45;;;2.75;;
23236;SDS011;11787;52.018;8.570;2023-12-14T11:03:46;2.25;;;1.90;;
23236;SDS011;11787;52.018;8.570;2023-12-14T11:08:59;3.50;;;2.22;;
23236;SDS011;11787;52.018;8.570;2023-12-14T11:11:43;2.50;;;2.00;;
23236;SDS011;11787;52.018;8.570;2023-12-14T11:14:25;2.65;;;1.85;;
23236;SDS011;11787;52.018;8.570;2023-12-14T11:16:55;2.97;;;2.17;;
23236;SDS011;11787;52.018;8.570;2023-12-14T11:19:26;4.47;;;2.65;;
23236;SDS011;11787;52.018;8.570;2023-12-14T11:24:22;3.95;;;2.42;;
23236;SDS011;11787;52.018;8.570;2023-12-14T11:26:51;3.03;;;2.13;;
23236;SDS011;11787;52.018;8.570;2023-12-14T11:29:17;3.22;;;2.38;;
23236;SDS011;11787;52.018;8.570;2023-12-14T11:31:44;3.72;;;2.35;;
23236;SDS011;11787;52.018;8.570;2023-12-14T11:34:09;3.33;;;2.47;;
23236;SDS011;11787;52.018;8.570;2023-12-14T11:36:36;3.30;;;2.17;;
23236;SDS011;11787;52.018;8.570;2023-12-14T11:39:04;5.18;;;2.47;;
23236;SDS011;11787;52.018;8.570;2023-12-14T11:41:30;3.17;;;2.20;;
23236;SDS011;11787;52.018;8.570;2023-12-14T11:43:58;4.47;;;1.85;;
23236;SDS011;11787;52.018;8.570;2023-12-14T11:46:24;4.03;;;2.30;;
23236;SDS011;11787;52.018;8.570;2023-12-14T11:48:50;4.20;;;2.25;;
23236;SDS011;11787;52.018;8.570;2023-12-14T11:51:16;3.03;;;2.42;;
23236;SDS011;11787;52.018;8.570;2023-12-14T11:53:46;3.53;;;2.47;;
23236;SDS011;11787;52.018;8.570;2023-12-14T11:56:13;3.15;;;2.28;;
23236;SDS011;11787;52.018;8.570;2023-12-14T11:58:43;3.22;;;2.35;;
23236;SDS011;11787;52.018;8.570;2023-12-14T12:03:42;3.20;;;2.50;;
23236;SDS011;11787;52.018;8.570;2023-12-14T12:06:09;4.70;;;2.42;;
23236;SDS011;11787;52.018;8.570;2023-12-14T12:08:53;2.22;;;1.70;;
23236;SDS011;11787;52.018;8.570;2023-12-14T12:11:19;2.38;;;1.75;;
23236;SDS011;11787;52.018;8.570;2023-12-14T12:13:54;4.28;;;2.33;;
23236;SDS011;11787;52.018;8.570;2023-12-14T12:16:20;2.13;;;1.77;;
23236;SDS011;11787;52.018;8.570;2023-12-14T12:18:47;4.25;;;2.40;;
23236;SDS011;11787;52.018;8.570;2023-12-14T12:21:12;3.28;;;1.83;;
23236;SDS011;11787;52.018;8.570;2023-12-14T12:23:38;3.53;;;2.28;;
23236;SDS011;11787;52.018;8.570;2023-12-14T12:26:06;4.47;;;2.08;;
23236;SDS011;11787;52.018;8.570;2023-12-14T12:28:32;3.78;;;1.70;;
23236;SDS011;11787;52.018;8.570;2023-12-14T12:30:57;2.33;;;1.77;;
23236;SDS011;11787;52.018;8.570;2023-12-14T12:33:24;2.05;;;1.75;;
23236;SDS011;11787;52.018;8.570;2023-12-14T12:35:50;3.40;;;2.25;;
23236;SDS011;11787;52.018;8.570;2023-12-14T12:38:16;3.33;;;2.10;;
23236;SDS011;11787;52.018;8.570;2023-12-14T12:40:43;2.45;;;1.58;;
23236;SDS011;11787;52.018;8.570;2023-12-14T12:43:09;3.90;;;2.33;;
23236;SDS011;11787;52.018;8.570;2023-12-14T12:45:35;2.92;;;1.98;;
23236;SDS011;11787;52.018;8.570;2023-12-14T12:48:02;3.00;;;1.75;;
23236;SDS011;11787;52.018;8.570;2023-12-14T12:50:29;3.03;;;1.77;;
23236;SDS011;11787;52.018;8.570;2023-12-14T12:52:54;3.00;;;2.03;;
23236;SDS011;11787;52.018;8.570;2023-12-14T12:55:20;1.90;;;1.67;;
23236;SDS011;11787;52.018;8.570;2023-12-14T12:57:46;5.40;;;2.00;;
23236;SDS011;11787;52.018;8.570;2023-12-14T13:00:12;3.67;;;1.55;;
23236;SDS011;11787;52.018;8.570;2023-12-14T13:02:39;4.68;;;1.52;;
23236;SDS011;11787;52.018;8.570;2023-12-14T13:05:05;2.92;;;1.80;;
23236;SDS011;11787;52.018;8.570;2023-12-14T13:07:32;2.17;;;1.80;;
23236;SDS011;11787;52.018;8.570;2023-12-14T13:09:58;2.35;;;1.50;;
23236;SDS011;11787;52.018;8.570;2023-12-14T13:12:24;2.42;;;1.88;;
23236;SDS011;11787;52.018;8.570;2023-12-14T13:14:50;3.05;;;2.22;;
23236;SDS011;11787;52.018;8.570;2023-12-14T13:17:15;6.50;;;1.90;;
23236;SDS011;11787;52.018;8.570;2023-12-14T13:19:43;5.25;;;1.70;;
23236;SDS011;11787;52.018;8.570;2023-12-14T13:22:09;4.18;;;1.88;;
23236;SDS011;11787;52.018;8.570;2023-12-14T13:24:36;2.28;;;1.80;;
23236;SDS011;11787;52.018;8.570;2023-12-14T13:27:02;6.10;;;1.73;;
23236;SDS011;11787;52.018;8.570;2023-12-14T13:29:28;2.35;;;1.83;;
23236;SDS011;11787;52.018;8.570;2023-12-14T13:31:56;2.55;;;1.48;;
23236;SDS011;11787;52.018;8.570;2023-12-14T13:34:21;1.95;;;1.48;;
23236;SDS011;11787;52.018;8.570;2023-12-14T13:36:47;2.17;;;1.20;;
23236;SDS011;11787;52.018;8.570;2023-12-14T13:39:12;2.45;;;1.60;;
23236;SDS011;11787;52.018;8.570;2023-12-14T13:41:38;2.40;;;1.73;;
23236;SDS011;11787;52.018;8.570;2023-12-14T13:44:04;1.98;;;1.60;;
23236;SDS011;11787;52.018;8.570;2023-12-14T13:46:29;2.75;;;1.58;;
23236;SDS011;11787;52.018;8.570;2023-12-14T13:48:55;2.28;;;1.67;;
23236;SDS011;11787;52.018;8.570;2023-12-14T13:51:21;1.80;;;1.55;;
23236;SDS011;11787;52.018;8.570;2023-12-14T13:53:47;1.48;;;1.20;;
23236;SDS011;11787;52.018;8.570;2023-12-14T13:56:13;2.38;;;1.67;;
23236;SDS011;11787;52.018;8.570;2023-12-14T13:58:38;2.00;;;1.48;;
23236;SDS011;11787;52.018;8.570;2023-12-14T14:01:04;3.92;;;1.63;;
23236;SDS011;11787;52.018;8.570;2023-12-14T14:03:34;1.77;;;1.30;;
23236;SDS011;11787;52.018;8.570;2023-12-14T14:06:00;1.90;;;1.30;;
23236;SDS011;11787;52.018;8.570;2023-12-14T14:08:27;3.80;;;1.30;;
23236;SDS011;11787;52.018;8.570;2023-12-14T14:10:53;2.50;;;1.52;;
23236;SDS011;11787;52.018;8.570;2023-12-14T14:13:18;2.05;;;1.60;;
23236;SDS011;11787;52.018;8.570;2023-12-14T14:15:46;3.35;;;1.90;;
23236;SDS011;11787;52.018;8.570;2023-12-14T14:18:12;2.28;;;1.52;;
23236;SDS011;11787;52.018;8.570;2023-12-14T14:20:38;2.67;;;1.95;;
23236;SDS011;11787;52.018;8.570;2023-12-14T14:23:04;2.45;;;1.40;;
23236;SDS011;11787;52.018;8.570;2023-12-14T14:25:29;2.00;;;1.40;;
23236;SDS011;11787;52.018;8.570;2023-12-14T14:27:55;2.22;;;1.35;;
23236;SDS011;11787;52.018;8.570;2023-12-14T14:30:21;2.78;;;1.55;;
23236;SDS011;11787;52.018;8.570;2023-12-14T14:32:46;1.55;;;1.13;;
23236;SDS011;11787;52.018;8.570;2023-12-14T14:35:12;1.55;;;1.45;;
23236;SDS011;11787;52.018;8.570;2023-12-14T14:37:38;1.25;;;1.05;;
23236;SDS011;11787;52.018;8.570;2023-12-14T14:40:04;5.28;;;3.42;;
23236;SDS011;11787;52.018;8.570;2023-12-14T14:42:30;4.50;;;3.05;;
23236;SDS011;11787;52.018;8.570;2023-12-14T14:44:56;5.00;;;2.88;;
23236;SDS011;11787;52.018;8.570;2023-12-14T14:47:22;4.47;;;2.45;;
23236;SDS011;11787;52.018;8.570;2023-12-14T14:49:48;3.65;;;2.33;;
23236;SDS011;11787;52.018;8.570;2023-12-14T14:52:14;4.38;;;2.40;;
23236;SDS011;11787;52.018;8.570;2023-12-14T14:54:40;3.45;;;2.15;;
23236;SDS011;11787;52.018;8.570;2023-12-14T14:57:06;1.80;;;1.50;;
23236;SDS011;11787;52.018;8.570;2023-12-14T14:59:31;2.40;;;1.40;;
23236;SDS011;11787;52.018;8.570;2023-12-14T15:01:57;1.63;;;1.38;;
23236;SDS011;11787;52.018;8.570;2023-12-14T15:04:26;3.05;;;1.70;;
23236;SDS011;11787;52.018;8.570;2023-12-14T15:06:52;3.13;;;1.65;;
23236;SDS011;11787;52.018;8.570;2023-12-14T15:09:17;4.45;;;1.80;;
23236;SDS011;11787;52.018;8.570;2023-12-14T15:11:43;4.38;;;1.70;;
23236;SDS011;11787;52.018;8.570;2023-12-14T15:14:08;3.25;;;1.52;;
23236;SDS011;11787;52.018;8.570;2023-12-14T15:16:34;3.75;;;1.98;;
23236;SDS011;11787;52.018;8.570;2023-12-14T15:19:01;2.72;;;1.55;;
23236;SDS011;11787;52.018;8.570;2023-12-14T15:21:26;2.58;;;1.63;;
23236;SDS011;11787;52.018;8.570;2023-12-14T15:23:52;2.92;;;1.85;;
23236;SDS011;11787;52.018;8.570;2023-12-14T15:26:19;2.13;;;1.38;;
23236;SDS011;11787;52.018;8.570;2023-12-14T15:28:44;2.22;;;1.55;;
23236;SDS011;11787;52.018;8.570;2023-12-14T15:31:10;2.10;;;1.50;;
23236;SDS011;11787;52.018;8.570;2023-12-14T15:33:36;2.28;;;1.52;;
23236;SDS011;11787;52.018;8.570;2023-12-14T15:36:02;3.97;;;1.83;;
23236;SDS011;11787;52.018;8.570;2023-12-14T15:38:28;2.08;;;1.45;;
23236;SDS011;11787;52.018;8.570;2023-12-14T15:40:53;3.08;;;1.90;;
23236;SDS011;11787;52.018;8.570;2023-12-14T15:43:19;3.70;;;2.38;;
23236;SDS011;11787;52.018;8.570;2023-12-14T15:45:45;3.63;;;2.42;;
23236;SDS011;11787;52.018;8.570;2023-12-14T15:48:10;4.60;;;2.17;;
23236;SDS011;11787;52.018;8.570;2023-12-14T15:50:36;4.38;;;2.53;;
23236;SDS011;11787;52.018;8.570;2023-12-14T15:53:03;2.42;;;2.10;;
23236;SDS011;11787;52.018;8.570;2023-12-14T15:55:29;3.25;;;2.40;;
23236;SDS011;11787;52.018;8.570;2023-12-14T15:57:55;3.90;;;2.42;;
23236;SDS011;11787;52.018;8.570;2023-12-14T16:00:21;4.07;;;2.60;;
23236;SDS011;11787;52.018;8.570;2023-12-14T16:02:46;5.72;;;3.30;;
23236;SDS011;11787;52.018;8.570;2023-12-14T16:05:12;4.32;;;3.00;;
23236;SDS011;11787;52.018;8.570;2023-12-14T16:07:38;17.40;;;3.42;;
23236;SDS011;11787;52.018;8.570;2023-12-14T16:10:04;10.35;;;3.65;;
23236;SDS011;11787;52.018;8.570;2023-12-14T16:12:30;6.07;;;2.90;;
23236;SDS011;11787;52.018;8.570;2023-12-14T16:14:55;4.90;;;3.28;;
23236;SDS011;11787;52.018;8.570;2023-12-14T16:17:25;5.13;;;3.28;;
23236;SDS011;11787;52.018;8.570;2023-12-14T16:19:50;6.93;;;3.47;;
23236;SDS011;11787;52.018;8.570;2023-12-14T16:22:16;9.93;;;4.13;;
23236;SDS011;11787;52.018;8.570;2023-12-14T16:24:42;5.85;;;3.85;;
23236;SDS011;11787;52.018;8.570;2023-12-14T16:27:08;6.00;;;3.17;;
23236;SDS011;11787;52.018;8.570;2023-12-14T16:29:34;5.43;;;3.40;;
23236;SDS011;11787;52.018;8.570;2023-12-14T16:32:02;7.90;;;3.67;;
23236;SDS011;11787;52.018;8.570;2023-12-14T16:34:28;8.18;;;4.32;;
23236;SDS011;11787;52.018;8.570;2023-12-14T16:36:55;8.10;;;4.28;;
23236;SDS011;11787;52.018;8.570;2023-12-14T16:39:20;8.35;;;4.50;;
23236;SDS011;11787;52.018;8.570;2023-12-14T16:41:46;7.28;;;4.15;;
23236;SDS011;11787;52.018;8.570;2023-12-14T16:44:11;8.18;;;4.22;;
23236;SDS011;11787;52.018;8.570;2023-12-14T16:46:37;7.13;;;4.03;;
23236;SDS011;11787;52.018;8.570;2023-12-14T16:49:03;9.13;;;5.30;;
23236;SDS011;11787;52.018;8.570;2023-12-14T16:51:29;9.98;;;4.93;;
23236;SDS011;11787;52.018;8.570;2023-12-14T16:53:55;10.52;;;5.80;;
23236;SDS011;11787;52.018;8.570;2023-12-14T16:56:27;10.32;;;5.97;;
23236;SDS011;11787;52.018;8.570;2023-12-14T16:58:54;9.73;;;5.05;;
23236;SDS011;11787;52.018;8.570;2023-12-14T17:01:19;9.10;;;5.57;;
23236;SDS011;11787;52.018;8.570;2023-12-14T17:03:45;12.15;;;5.80;;
23236;SDS011;11787;52.018;8.570;2023-12-14T17:06:11;10.15;;;5.10;;
23236;SDS011;11787;52.018;8.570;2023-12-14T17:08:41;8.20;;;4.55;;
23236;SDS011;11787;52.018;8.570;2023-12-14T17:11:06;12.15;;;5.35;;
23236;SDS011;11787;52.018;8.570;2023-12-14T17:13:33;10.38;;;5.43;;
23236;SDS011;11787;52.018;8.570;2023-12-14T17:15:58;10.52;;;5.43;;
23236;SDS011;11787;52.018;8.570;2023-12-14T17:18:24;9.55;;;5.78;;
23236;SDS011;11787;52.018;8.570;2023-12-14T17:20:49;10.07;;;5.57;;
23236;SDS011;11787;52.018;8.570;2023-12-14T17:23:15;10.23;;;6.18;;
23236;SDS011;11787;52.018;8.570;2023-12-14T17:25:41;9.45;;;5.80;;
23236;SDS011;11787;52.018;8.570;2023-12-14T17:28:06;8.50;;;4.90;;
23236;SDS011;11787;52.018;8.570;2023-12-14T17:30:32;9.80;;;5.43;;
23236;SDS011;11787;52.018;8.570;2023-12-14T17:32:57;10.15;;;4.85;;
23236;SDS011;11787;52.018;8.570;2023-12-14T17:35:23;9.73;;;5.53;;
23236;SDS011;11787;52.018;8.570;2023-12-14T17:37:48;9.60;;;4.95;;
23236;SDS011;11787;52.018;8.570;2023-12-14T17:40:14;12.35;;;6.07;;
23236;SDS011;11787;52.018;8.570;2023-12-14T17:42:40;15.10;;;6.03;;
23236;SDS011;11787;52.018;8.570;2023-12-14T17:45:05;9.05;;;4.95;;
23236;SDS011;11787;52.018;8.570;2023-12-14T17:47:31;9.93;;;5.20;;
23236;SDS011;11787;52.018;8.570;2023-12-14T17:49:57;13.35;;;6.13;;
23236;SDS011;11787;52.018;8.570;2023-12-14T17:52:23;15.18;;;6.47;;
23236;SDS011;11787;52.018;8.570;2023-12-14T17:54:49;9.55;;;5.53;;
23236;SDS011;11787;52.018;8.570;2023-12-14T17:57:16;10.90;;;6.10;;
23236;SDS011;11787;52.018;8.570;2023-12-14T17:59:41;12.00;;;6.28;;
23236;SDS011;11787;52.018;8.570;2023-12-14T18:02:07;12.02;;;6.45;;
23236;SDS011;11787;52.018;8.570;2023-12-14T18:04:33;11.25;;;5.75;;
23236;SDS011;11787;52.018;8.570;2023-12-14T18:06:58;10.45;;;5.82;;
23236;SDS011;11787;52.018;8.570;2023-12-14T18:09:24;11.85;;;6.32;;
23236;SDS011;11787;52.018;8.570;2023-12-14T18:11:49;11.18;;;6.03;;
23236;SDS011;11787;52.018;8.570;2023-12-14T18:14:15;10.23;;;5.63;;
23236;SDS011;11787;52.018;8.570;2023-12-14T18:16:41;10.70;;;5.68;;
23236;SDS011;11787;52.018;8.570;2023-12-14T18:19:07;13.77;;;6.72;;
23236;SDS011;11787;52.018;8.570;2023-12-14T18:21:33;11.85;;;5.85;;